createdAt,value
2018-01-06T00:07:00.444Z,10.50
2018-01-06T00:10:03.739Z,10.49
2018-01-06T00:12:36.643Z,10.48
2018-01-06T00:17:57.269Z,10.35
2018-01-06T00:20:24.790Z,10.29
2018-01-06T00:22:56.801Z,10.20
2018-01-06T00:25:25.486Z,10.23
2018-01-06T00:27:53.985Z,10.16
2018-01-06T00:30:22.406Z,10.16
2018-01-06T00:32:50.190Z,10.28
2018-01-06T00:35:20.147Z,10.31
2018-01-06T00:37:48.763Z,10.35
2018-01-06T00:40:17.433Z,10.59
2018-01-06T00:42:49.132Z,10.33
2018-01-06T00:48:19.504Z,10.53
2018-01-06T00:50:47.139Z,10.64
2018-01-06T00:53:15.511Z,10.58
2018-01-06T00:55:43.150Z,10.63
2018-01-06T00:58:12.152Z,10.62
2018-01-06T01:00:40.859Z,10.62
2018-01-06T01:03:08.720Z,10.67
2018-01-06T01:05:36.333Z,10.59
2018-01-06T01:08:04.024Z,10.47
2018-01-06T01:10:31.601Z,10.57
2018-01-06T01:12:59.257Z,10.34
2018-01-06T01:15:26.826Z,10.45
2018-01-06T01:17:55.364Z,10.63
2018-01-06T01:20:23.060Z,10.61
2018-01-06T01:22:50.774Z,10.46
2018-01-06T01:25:21.017Z,10.60
2018-01-06T01:27:51.731Z,10.67
2018-01-06T01:39:48.786Z,10.50
2018-01-06T01:42:17.460Z,10.58
2018-01-06T01:44:45.026Z,10.60
2018-01-06T01:47:14.152Z,10.55
2018-01-06T01:49:44.772Z,10.65
2018-01-06T01:52:17.133Z,10.69
2018-01-06T01:54:47.174Z,10.68
2018-01-06T01:57:17.668Z,10.03
2018-01-06T01:59:47.218Z,10.16
2018-01-06T02:11:34.482Z,10.49
2018-01-06T02:14:14.395Z,10.37
2018-01-06T02:16:42.030Z,10.41
2018-01-06T02:19:09.782Z,10.57
2018-01-06T02:21:37.378Z,10.63
2018-01-06T02:24:05.205Z,10.44
2018-01-06T02:35:29.953Z,10.33
2018-01-06T02:44:38.581Z,10.45
2018-01-06T02:49:51.147Z,10.42
2018-01-06T02:52:20.910Z,10.47
2018-01-06T02:54:50.113Z,10.57
2018-01-06T02:57:18.269Z,10.52
2018-01-06T02:59:46.516Z,10.42
2018-01-06T03:02:15.080Z,10.47
2018-01-06T03:04:46.318Z,10.51
2018-01-06T03:07:14.073Z,10.54
2018-01-06T03:09:42.697Z,10.49
2018-01-06T03:12:11.002Z,10.55
2018-01-06T03:14:41.165Z,10.49
2018-01-06T03:17:08.988Z,10.65
2018-01-06T03:19:38.043Z,10.62
2018-01-06T03:22:10.748Z,10.63
2018-01-06T03:24:39.560Z,10.69
2018-01-06T03:27:07.335Z,10.67
2018-01-06T03:29:35.089Z,10.38
2018-01-06T03:32:03.734Z,10.29
2018-01-06T03:34:32.915Z,10.26
2018-01-06T03:37:03.327Z,10.46
2018-01-06T03:39:33.038Z,10.56
2018-01-06T03:42:02.623Z,10.50
2018-01-06T03:44:31.655Z,10.45
2018-01-06T03:47:00.412Z,10.36
2018-01-06T03:49:28.130Z,10.39
2018-01-06T03:54:55.502Z,10.18
2018-01-06T04:03:14.649Z,9.95
2018-01-06T04:05:42.832Z,9.94
2018-01-06T04:08:10.406Z,9.88
2018-01-06T04:10:38.307Z,9.97
2018-01-06T04:13:06.637Z,10.08
2018-01-06T04:15:35.642Z,9.90
2018-01-06T04:18:03.700Z,9.90
2018-01-06T04:20:32.580Z,9.99
2018-01-06T04:23:02.094Z,9.97
2018-01-06T04:25:29.949Z,9.64
2018-01-06T04:28:00.140Z,9.55
2018-01-06T04:30:29.170Z,9.14
2018-01-06T04:32:56.765Z,9.58
2018-01-06T04:35:24.560Z,9.42
2018-01-06T04:37:53.308Z,9.49
2018-01-06T04:40:21.022Z,9.18
2018-01-06T04:42:49.811Z,8.98
2018-01-06T04:45:17.386Z,9.10
2018-01-06T04:47:46.382Z,9.22
2018-01-06T04:50:14.174Z,9.26
2018-01-06T04:52:41.679Z,9.30
2018-01-06T05:03:53.026Z,9.04
2018-01-06T05:06:20.637Z,9.11
2018-01-06T05:08:48.235Z,9.03
2018-01-06T05:11:15.730Z,9.09
2018-01-06T05:13:43.254Z,9.03
2018-01-06T05:16:10.820Z,9.18
2018-01-06T05:32:48.455Z,9.02
2018-01-06T05:35:16.103Z,8.75
2018-01-06T05:57:48.037Z,8.77
2018-01-06T06:00:16.453Z,8.62
2018-01-06T06:02:50.772Z,8.77
2018-01-06T06:05:18.780Z,8.80
2018-01-06T06:07:46.765Z,8.77
2018-01-06T06:10:15.725Z,8.79
2018-01-06T06:12:46.340Z,8.77
2018-01-06T06:15:14.215Z,8.75
2018-01-06T06:17:47.613Z,8.52
2018-01-06T06:20:15.519Z,8.61
2018-01-06T06:22:46.167Z,8.62
2018-01-06T06:25:15.315Z,8.71
2018-01-06T06:27:44.123Z,8.65
2018-01-06T06:30:13.090Z,8.93
2018-01-06T06:32:45.876Z,8.94
2018-01-06T06:35:15.017Z,8.95
2018-01-06T06:37:47.491Z,8.98
2018-01-06T06:40:15.427Z,8.95
2018-01-06T06:42:44.684Z,8.93
2018-01-06T06:45:12.207Z,9.12
2018-01-06T06:47:39.741Z,9.19
2018-01-06T06:50:07.977Z,9.24
2018-01-06T06:52:35.837Z,9.12
2018-01-06T06:55:03.519Z,8.88
2018-01-06T06:57:32.252Z,9.20
2018-01-06T06:59:59.787Z,8.89
2018-01-06T07:02:27.333Z,8.83
2018-01-06T07:04:55.520Z,8.90
2018-01-06T07:07:23.146Z,8.93
2018-01-06T07:09:50.714Z,8.96
2018-01-06T07:12:18.171Z,9.01
2018-01-06T07:14:45.633Z,9.10
2018-01-06T07:17:13.648Z,9.08
2018-01-06T07:19:41.415Z,9.26
2018-01-06T07:22:09.358Z,9.24
2018-01-06T08:27:33.707Z,8.75
2018-01-06T08:30:01.253Z,8.91
2018-01-06T08:32:31.620Z,9.11
2018-01-06T08:35:00.863Z,9.19
2018-01-06T08:37:33.726Z,9.36
2018-01-06T08:40:03.369Z,9.36
2018-01-06T08:42:33.957Z,9.32
2018-01-06T08:45:02.588Z,9.59
2018-01-06T08:47:32.603Z,9.77
2018-01-06T08:50:03.802Z,9.92
2018-01-06T08:52:31.332Z,10.11
2018-01-06T08:54:59.974Z,10.20
2018-01-06T08:57:27.554Z,10.14
2018-01-06T08:59:55.529Z,10.19
2018-01-06T09:02:23.344Z,10.12
2018-01-06T09:04:54.406Z,10.35
2018-01-06T09:07:22.384Z,10.55
2018-01-06T09:09:53.086Z,10.71
2018-01-06T09:12:25.808Z,10.60
2018-01-06T09:14:54.616Z,10.93
2018-01-06T09:17:24.326Z,11.15
2018-01-06T09:19:55.464Z,11.11
2018-01-06T09:22:25.631Z,11.26
2018-01-06T09:24:55.472Z,10.95
2018-01-06T09:27:27.983Z,10.90
2018-01-06T09:29:58.000Z,10.61
2018-01-06T09:32:28.693Z,10.84
2018-01-06T09:34:56.547Z,10.81
2018-01-06T09:37:24.688Z,10.65
2018-01-06T09:39:55.328Z,10.95
2018-01-06T09:42:24.341Z,11.23
2018-01-06T09:44:53.978Z,11.29
2018-01-06T09:47:23.904Z,11.50
2018-01-06T09:49:52.646Z,11.95
2018-01-06T09:52:26.511Z,11.96
2018-01-06T09:54:55.322Z,12.27
2018-01-06T09:57:25.430Z,12.45
2018-01-06T09:59:53.756Z,12.58
2018-01-06T10:02:23.604Z,12.64
2018-01-06T10:04:51.716Z,11.94
2018-01-06T10:07:21.936Z,11.95
2018-01-06T10:09:50.583Z,11.83
2018-01-06T10:12:20.048Z,11.99
2018-01-06T10:14:49.098Z,11.52
2018-01-06T10:17:20.502Z,11.81
2018-01-06T10:19:50.573Z,11.81
2018-01-06T10:22:21.287Z,11.66
2018-01-06T10:24:51.219Z,11.33
2018-01-06T10:27:23.515Z,11.62
2018-01-06T10:29:51.924Z,11.83
2018-01-06T10:32:20.172Z,11.84
2018-01-06T10:34:53.481Z,11.10
2018-01-06T10:37:22.240Z,12.06
2018-01-06T10:39:51.110Z,12.11
2018-01-06T10:48:15.127Z,12.81
2018-01-06T10:50:43.081Z,13.08
2018-01-06T12:36:42.649Z,13.36
2018-01-06T12:39:13.098Z,13.44
2018-01-06T12:41:41.045Z,13.48
2018-01-06T12:44:08.697Z,13.81
2018-01-06T12:46:36.175Z,13.61
2018-01-06T12:49:03.864Z,13.67
2018-01-06T12:51:31.461Z,13.95
2018-01-06T12:53:58.980Z,13.89
2018-01-06T12:56:26.477Z,13.95
2018-01-06T12:58:54.100Z,13.52
2018-01-06T13:01:21.632Z,13.66
2018-01-06T13:03:49.124Z,13.74
2018-01-06T13:06:16.601Z,13.74
2018-01-06T13:08:44.040Z,13.63
2018-01-06T13:11:12.809Z,13.67
2018-01-06T13:13:40.738Z,13.57
2018-01-06T13:16:08.292Z,13.80
2018-01-06T13:18:35.776Z,13.91
2018-01-06T13:21:03.231Z,13.66
2018-01-06T13:23:31.185Z,13.63
2018-01-06T13:25:58.754Z,13.91
2018-01-06T13:28:26.238Z,14.06
2018-01-06T13:30:53.729Z,13.93
2018-01-06T13:33:22.083Z,13.67
2018-01-06T13:35:49.577Z,13.64
2018-01-06T13:38:17.061Z,13.69
2018-01-06T13:40:44.743Z,13.71
2018-01-06T13:43:13.310Z,13.75
2018-01-06T13:45:40.818Z,13.78
2018-01-06T13:48:08.305Z,13.97
2018-01-06T13:50:35.780Z,14.14
2018-01-06T13:53:03.301Z,13.83
2018-01-06T13:55:30.756Z,13.72
2018-01-06T13:57:58.242Z,13.55
2018-01-06T14:00:25.860Z,13.34
2018-01-06T14:02:53.316Z,13.26
2018-01-06T14:05:20.825Z,12.96
2018-01-06T14:07:48.383Z,13.18
2018-01-06T14:10:15.841Z,13.16
2018-01-06T14:12:44.254Z,13.37
2018-01-06T14:15:11.724Z,13.43
2018-01-06T14:17:39.530Z,13.50
2018-01-06T14:20:07.012Z,13.51
2018-01-06T14:22:34.624Z,13.47
2018-01-06T14:25:02.107Z,13.49
2018-01-06T14:27:29.566Z,13.38
2018-01-06T14:29:57.079Z,13.36
2018-01-06T14:32:24.576Z,13.35
2018-01-06T14:34:52.062Z,13.41
2018-01-06T14:37:19.523Z,13.31
2018-01-06T14:39:47.007Z,13.15
2018-01-06T14:42:14.950Z,13.26
2018-01-06T14:44:42.440Z,13.26
2018-01-06T14:47:09.931Z,13.21
2018-01-06T14:49:37.388Z,13.17
2018-01-06T14:52:04.865Z,13.12
2018-01-06T14:54:32.333Z,13.08
2018-01-06T14:57:00.855Z,13.09
2018-01-06T14:59:28.309Z,13.02
2018-01-06T15:01:55.878Z,13.03
2018-01-06T15:04:23.410Z,12.90
2018-01-06T15:06:50.986Z,12.56
2018-01-06T15:09:18.706Z,12.52
2018-01-06T15:11:46.362Z,12.20
2018-01-06T15:14:13.856Z,12.40
2018-01-06T15:16:41.312Z,12.62
2018-01-06T15:19:08.787Z,12.69
2018-01-06T15:21:36.320Z,12.68
2018-01-06T15:24:03.931Z,12.65
2018-01-06T15:26:31.408Z,12.69
2018-01-06T15:28:58.908Z,12.64
2018-01-06T15:31:26.396Z,12.61
2018-01-06T15:33:53.879Z,12.58
2018-01-06T15:36:21.395Z,12.45
2018-01-06T15:38:48.898Z,12.36
2018-01-06T15:41:16.624Z,12.29
2018-01-06T15:43:44.111Z,12.30
2018-01-06T15:46:11.593Z,12.31
2018-01-06T15:48:39.201Z,12.27
2018-01-06T15:51:06.703Z,12.06
2018-01-06T15:53:34.223Z,11.78
2018-01-06T15:56:01.724Z,11.79
2018-01-06T15:58:29.263Z,11.84
2018-01-06T16:00:56.753Z,11.66
2018-01-06T16:03:24.222Z,11.64
2018-01-06T16:05:51.779Z,11.35
2018-01-06T16:08:19.582Z,11.43
2018-01-06T16:10:47.151Z,11.33
2018-01-06T16:13:15.425Z,11.15
2018-01-06T16:15:43.243Z,11.06
2018-01-06T16:18:11.071Z,11.13
2018-01-06T16:20:38.515Z,10.99
2018-01-06T16:23:06.005Z,10.94
2018-01-06T16:25:33.550Z,11.05
2018-01-06T16:28:01.036Z,10.57
2018-01-06T16:30:28.724Z,10.65
2018-01-06T16:32:56.210Z,10.59
2018-01-06T16:35:23.832Z,10.51
2018-01-06T16:37:51.329Z,10.55
2018-01-06T16:40:19.422Z,10.72
2018-01-06T16:42:47.183Z,10.73
2018-01-06T16:45:14.833Z,10.49
2018-01-06T16:47:42.529Z,10.43
2018-01-06T16:50:10.056Z,10.27
2018-01-06T16:52:37.622Z,10.37
2018-01-06T16:55:05.155Z,10.20
2018-01-06T16:57:32.723Z,10.03
2018-01-06T17:00:01.018Z,9.99
2018-01-06T17:02:28.515Z,10.07
2018-01-06T17:04:55.976Z,10.27
2018-01-06T17:07:23.435Z,10.28
2018-01-06T17:09:51.188Z,10.06
2018-01-06T17:12:18.660Z,9.87
2018-01-06T17:14:46.147Z,9.94
2018-01-06T17:17:17.619Z,9.85
2018-01-06T17:19:45.242Z,9.71
2018-01-06T17:22:12.749Z,9.81
2018-01-06T17:24:40.221Z,9.83
2018-01-06T17:27:07.683Z,9.66
2018-01-06T17:29:35.276Z,9.62
2018-01-06T17:32:02.745Z,9.51
2018-01-06T17:34:30.565Z,10.17
2018-01-06T17:36:58.015Z,9.65
2018-01-06T17:39:25.632Z,9.24
2018-01-06T17:41:53.476Z,9.27
2018-01-06T17:44:20.958Z,9.31
2018-01-06T17:46:49.561Z,9.43
2018-01-06T17:49:17.062Z,9.46
2018-01-06T17:51:44.548Z,9.34
2018-01-06T17:54:12.078Z,9.23
2018-01-06T17:56:39.704Z,9.25
2018-01-06T17:59:07.567Z,9.32
2018-01-06T18:01:35.061Z,9.19
2018-01-06T18:04:02.545Z,9.20
2018-01-06T18:06:30.022Z,9.21
2018-01-06T18:08:57.503Z,9.09
2018-01-06T18:11:25.052Z,9.05
2018-01-06T18:13:53.206Z,9.13
2018-01-06T18:16:20.898Z,9.04
2018-01-06T18:18:48.347Z,9.06
2018-01-06T18:21:15.824Z,8.69
2018-01-06T18:23:43.293Z,8.50
2018-01-06T18:26:11.012Z,8.33
2018-01-06T18:28:38.484Z,8.50
2018-01-06T18:31:05.946Z,8.57
2018-01-06T18:33:33.463Z,8.21
2018-01-06T18:36:00.930Z,8.48
2018-01-06T18:38:28.414Z,8.30
2018-01-06T18:40:55.899Z,8.51
2018-01-06T18:43:23.619Z,8.63
2018-01-06T18:45:51.146Z,8.57
2018-01-06T18:48:18.607Z,8.80
2018-01-06T18:50:46.120Z,8.83
2018-01-06T18:53:13.581Z,8.80
2018-01-06T18:55:41.125Z,8.59
2018-01-06T18:58:08.588Z,8.79
2018-01-06T19:00:36.063Z,8.68
2018-01-06T19:03:03.640Z,8.65
2018-01-06T19:05:31.093Z,8.55
2018-01-06T19:07:58.561Z,8.49
2018-01-06T19:10:26.489Z,8.31
2018-01-06T19:12:54.642Z,8.37
2018-01-06T19:15:22.136Z,8.36
2018-01-06T19:17:49.810Z,8.27
2018-01-06T19:20:17.299Z,8.27
2018-01-06T19:22:44.778Z,8.27
2018-01-06T19:25:12.233Z,8.19
2018-01-06T19:27:39.719Z,8.35
2018-01-06T19:30:07.173Z,8.32
2018-01-06T19:32:34.666Z,8.15
2018-01-06T19:35:02.228Z,7.97
2018-01-06T19:37:29.807Z,8.10
2018-01-06T19:39:57.673Z,8.15
2018-01-06T19:42:25.140Z,8.33
2018-01-06T19:44:52.617Z,8.43
2018-01-06T19:47:20.181Z,8.53
2018-01-06T19:49:47.840Z,8.58
2018-01-06T19:52:15.313Z,8.57
2018-01-06T19:54:42.779Z,8.24
2018-01-06T19:57:10.303Z,8.23
2018-01-06T19:59:37.950Z,8.22
2018-01-06T20:02:05.484Z,8.22
2018-01-06T20:04:32.958Z,8.29
2018-01-06T20:07:00.433Z,8.45
2018-01-06T20:09:28.195Z,8.14
2018-01-06T20:11:56.716Z,8.00
2018-01-06T20:14:24.197Z,8.11
2018-01-06T20:16:51.674Z,7.98
2018-01-06T20:19:19.353Z,8.01
2018-01-06T20:21:46.795Z,7.95
2018-01-06T20:24:14.261Z,7.72
2018-01-06T20:26:41.766Z,7.86
2018-01-06T20:29:09.227Z,8.03
2018-01-06T20:31:36.780Z,8.11
2018-01-06T20:34:04.264Z,8.17
2018-01-06T20:36:31.750Z,8.23
2018-01-06T20:38:59.799Z,7.96
2018-01-06T20:41:27.283Z,7.69
2018-01-06T20:43:55.481Z,7.91
2018-01-06T20:46:23.008Z,7.88
2018-01-06T20:48:50.487Z,7.87
2018-01-06T20:51:18.007Z,7.81
2018-01-06T20:53:45.465Z,7.92
2018-01-06T20:56:12.940Z,7.92
2018-01-06T20:58:40.428Z,7.87
2018-01-06T21:01:07.902Z,7.82
2018-01-06T21:03:35.397Z,7.74
2018-01-06T21:06:02.884Z,7.56
2018-01-06T21:08:31.083Z,7.55
2018-01-06T21:10:59.219Z,7.72
2018-01-06T21:13:26.976Z,7.54
2018-01-06T21:15:54.694Z,7.74
2018-01-06T21:18:22.182Z,7.67
2018-01-06T21:20:49.749Z,7.48
2018-01-06T21:23:17.347Z,7.42
2018-01-06T21:25:44.799Z,7.49
2018-01-06T21:28:12.265Z,7.48
2018-01-06T21:30:39.767Z,7.54
2018-01-06T21:33:07.263Z,7.26
2018-01-06T21:35:34.758Z,7.26
2018-01-06T21:38:02.333Z,7.04
2018-01-06T21:40:30.382Z,7.24
2018-01-06T21:42:57.852Z,7.25
2018-01-06T21:45:25.519Z,7.44
2018-01-06T21:47:53.288Z,7.48
2018-01-06T21:50:20.768Z,7.45
2018-01-06T21:52:48.306Z,7.47
2018-01-06T21:55:15.943Z,7.43
2018-01-06T21:57:43.546Z,7.46
2018-01-06T22:00:11.029Z,7.17
2018-01-06T22:02:38.549Z,7.00
2018-01-06T22:05:06.148Z,6.84
2018-01-06T22:07:34.334Z,6.62
2018-01-06T22:10:02.872Z,6.81
2018-01-06T22:12:30.329Z,6.94
2018-01-06T22:14:57.819Z,7.06
2018-01-06T22:17:25.322Z,7.25
2018-01-06T22:19:52.828Z,7.33
2018-01-06T22:22:20.355Z,7.40
2018-01-06T22:24:47.804Z,7.31
2018-01-06T22:27:16.136Z,7.27
2018-01-06T22:29:43.639Z,7.32
2018-01-06T22:32:11.131Z,7.41
2018-01-06T22:34:38.596Z,7.26
2018-01-06T22:37:06.089Z,7.26
2018-01-06T22:39:33.679Z,7.35
2018-01-06T22:42:01.160Z,7.36
2018-01-06T22:44:28.767Z,7.14
2018-01-06T22:46:56.841Z,7.07
2018-01-06T22:49:24.323Z,6.98
2018-01-06T22:51:51.810Z,7.32
2018-01-06T22:54:19.556Z,7.46
2018-01-06T22:56:47.014Z,7.33
2018-01-06T22:59:14.489Z,7.28
2018-01-06T23:01:41.978Z,7.24
2018-01-06T23:04:09.619Z,7.27
2018-01-06T23:06:37.100Z,7.31
2018-01-06T23:09:05.228Z,7.25
2018-01-06T23:11:32.727Z,7.23
2018-01-06T23:14:00.312Z,7.28
2018-01-06T23:16:27.773Z,7.31
2018-01-06T23:18:55.300Z,7.44
2018-01-06T23:21:22.804Z,7.24
2018-01-06T23:23:50.266Z,7.02
2018-01-06T23:26:17.792Z,7.03
2018-01-06T23:28:45.407Z,7.15
2018-01-06T23:31:12.928Z,7.25
2018-01-06T23:33:40.403Z,7.24
2018-01-06T23:36:07.926Z,6.71
2018-01-06T23:38:35.804Z,6.96
2018-01-06T23:41:03.263Z,6.91
2018-01-06T23:43:30.742Z,6.79
2018-01-06T23:45:58.197Z,6.95
2018-01-06T23:48:25.748Z,7.02
2018-01-06T23:50:53.299Z,7.01
2018-01-06T23:53:20.757Z,7.06
2018-01-06T23:55:48.238Z,7.06
2018-01-06T23:58:15.691Z,7.33
